Time;durP1;ratioP1;P1;durP2;ratioP2;P2;SDS_P1;SDS_P2;PMS_P1;PMS_P2;Temp;Humidity;BMP_temperature;BMP_pressure;BME280_temperature;BME280_humidity;BME280_pressure;Samples;Min_cycle;Max_cycle;Signal;HPM_P1;HPM_P2
2021/10/16 00:00:31;;;;;;;;;;;;;;;14.08;92.06;99369.88;5012023;28;1239;-62
2021/10/16 00:02:58;;;;;;;;;;;;;;;14.11;92.01;99364.66;5012185;28;953;-62
2021/10/16 00:05:23;;;;;;;;;;;;;;;14.11;91.85;99361.88;4994132;28;930;-62
2021/10/16 00:07:49;;;;;;;;;;;;;;;14.07;91.79;99356.41;5012136;28;826;-62
2021/10/16 00:10:16;;;;;;;;;;;;;;;14.07;92.10;99351.63;5012118;28;898;-62
2021/10/16 00:12:43;;;;;;;;;;;;;;;14.04;92.17;99344.19;5011894;28;1910;-62
2021/10/16 00:15:09;;;;;;;;;;;;;;;14.00;92.15;99343.50;4994466;28;1213;-61
2021/10/16 00:17:36;;;;;;;;;;;;;;;14.01;92.16;99335.94;4994413;28;1196;-62
2021/10/16 00:20:04;;;;;;;;;;;;;;;14.01;92.38;99333.91;5012009;28;815;-62
2021/10/16 00:22:30;;;;;;;;;;;;;;;14.02;92.43;99334.72;5012178;28;830;-62
2021/10/16 00:24:57;;;;;;;;;;;;;;;14.05;92.50;99325.50;5011882;28;870;-62
2021/10/16 00:27:23;;;;;;;;;;;;;;;14.06;92.38;99310.38;5011830;28;831;-61
2021/10/16 00:29:50;;;;;;;;;;;;;;;14.07;92.43;99321.06;5011896;28;830;-62
2021/10/16 00:32:16;;;;;;;;;;;;;;;14.07;92.58;99321.06;5011692;28;1889;-62
2021/10/16 00:34:43;;;;;;;;;;;;;;;14.08;92.47;99319.06;5011804;28;874;-62
2021/10/16 00:37:10;;;;;;;;;;;;;;;14.07;92.52;99315.50;5011728;28;811;-61
2021/10/16 00:39:36;;;;;;;;;;;;;;;14.08;92.56;99314.31;5011786;28;925;-62
2021/10/16 00:42:03;;;;;;;;;;;;;;;14.11;92.52;99320.19;5011667;28;830;-62
2021/10/16 00:44:31;;;;;;;;;;;;;;;14.13;92.32;99317.75;5011687;28;834;-62
2021/10/16 00:46:58;;;;;;;;;;;;;;;14.08;92.21;99305.16;5011733;28;799;-62
2021/10/16 00:49:25;;;;;;;;;;;;;;;13.98;92.50;99300.69;4993942;28;1185;-63
2021/10/16 00:51:52;;;;;;;;;;;;;;;13.94;92.86;99300.00;5011585;28;1895;-62
2021/10/16 00:54:23;;;;;;;;;;;;;;;13.91;93.46;99306.44;5011617;28;851;-62
2021/10/16 00:56:50;;;;;;;;;;;;;;;13.89;93.52;99313.22;5011592;28;873;-62
2021/10/16 00:59:17;;;;;;;;;;;;;;;13.90;93.84;99300.09;5011554;28;814;-62
2021/10/16 01:01:44;;;;;;;;;;;;;;;13.92;93.67;99299.66;5011351;28;1327;-62
2021/10/16 01:04:12;;;;;;;;;;;;;;;13.95;93.70;99307.09;5011466;28;867;-62
2021/10/16 01:06:39;;;;;;;;;;;;;;;13.93;93.89;99307.53;5011501;28;814;-62
2021/10/16 01:09:09;;;;;;;;;;;;;;;13.95;93.85;99299.56;5011434;28;808;-62
2021/10/16 01:11:37;;;;;;;;;;;;;;;13.99;93.69;99294.69;5011336;28;846;-63
2021/10/16 01:14:05;;;;;;;;;;;;;;;14.04;93.69;99299.72;5011384;28;1973;-62
2021/10/16 01:16:32;;;;;;;;;;;;;;;14.06;93.66;99290.94;5011488;28;912;-62
2021/10/16 01:19:00;;;;;;;;;;;;;;;14.09;93.58;99290.84;5014741;28;839;-62
2021/10/16 01:21:28;;;;;;;;;;;;;;;14.08;93.39;99280.16;5015214;28;858;-62
2021/10/16 01:23:56;;;;;;;;;;;;;;;14.11;93.30;99289.63;5015039;28;905;-62
2021/10/16 01:26:25;;;;;;;;;;;;;;;14.16;93.09;99287.06;5014843;28;816;-62
2021/10/16 01:28:51;;;;;;;;;;;;;;;14.19;92.96;99289.00;5015433;28;831;-62
2021/10/16 01:31:18;;;;;;;;;;;;;;;14.19;92.84;99282.63;5014908;28;823;-62
2021/10/16 01:33:45;;;;;;;;;;;;;;;14.22;92.96;99270.66;5014758;28;1943;-62
2021/10/16 01:36:11;;;;;;;;;;;;;;;14.25;92.83;99255.88;4997260;28;1177;-62
2021/10/16 01:38:38;;;;;;;;;;;;;;;14.24;92.46;99262.66;5014736;28;870;-62
2021/10/16 01:41:06;;;;;;;;;;;;;;;14.24;92.15;99245.97;5014796;28;804;-62
2021/10/16 01:43:32;;;;;;;;;;;;;;;14.22;91.81;99242.84;5014655;28;862;-63
2021/10/16 01:45:59;;;;;;;;;;;;;;;14.20;91.90;99248.84;5014643;28;1001;-61
2021/10/16 01:48:26;;;;;;;;;;;;;;;14.17;91.74;99243.41;5014622;28;850;-62
2021/10/16 01:50:53;;;;;;;;;;;;;;;14.11;91.98;99242.38;5014581;28;799;-62
2021/10/16 01:53:20;;;;;;;;;;;;;;;14.04;92.16;99246.94;5014465;28;1893;-62
2021/10/16 01:55:47;;;;;;;;;;;;;;;14.04;92.43;99262.81;5014444;28;810;-62
2021/10/16 01:58:15;;;;;;;;;;;;;;;14.00;92.60;99271.25;5014485;28;823;-62
2021/10/16 02:00:45;;;;;;;;;;;;;;;14.01;92.77;99272.78;5014154;28;1291;-62
2021/10/16 02:03:12;;;;;;;;;;;;;;;14.01;92.84;99264.47;5014643;28;874;-61
2021/10/16 02:05:41;;;;;;;;;;;;;;;14.04;92.79;99265.59;5014492;28;858;-62
2021/10/16 02:08:08;;;;;;;;;;;;;;;14.06;92.58;99263.13;5014275;28;811;-62
2021/10/16 02:10:34;;;;;;;;;;;;;;;14.06;92.57;99268.69;5014215;28;870;-61
2021/10/16 02:13:00;;;;;;;;;;;;;;;14.11;92.63;99272.97;5014124;28;1918;-62
2021/10/16 02:15:27;;;;;;;;;;;;;;;14.12;92.61;99263.38;5014219;28;890;-62
2021/10/16 02:17:53;;;;;;;;;;;;;;;14.11;92.52;99261.84;5014397;28;936;-62
2021/10/16 02:20:20;;;;;;;;;;;;;;;14.03;92.45;99248.13;5014359;28;811;-62
2021/10/16 02:22:47;;;;;;;;;;;;;;;13.99;92.49;99241.88;5014148;28;897;-62
2021/10/16 02:25:13;;;;;;;;;;;;;;;13.99;92.58;99239.13;5014194;28;901;-62
2021/10/16 02:27:40;;;;;;;;;;;;;;;14.01;92.76;99230.34;5014553;28;780;-62
2021/10/16 02:30:08;;;;;;;;;;;;;;;14.05;92.64;99229.03;5013856;28;1317;-62
2021/10/16 02:32:35;;;;;;;;;;;;;;;14.08;92.56;99238.47;5014023;28;2237;-62
2021/10/16 02:35:02;;;;;;;;;;;;;;;14.04;92.11;99248.94;5013979;28;867;-62
2021/10/16 02:37:29;;;;;;;;;;;;;;;13.86;92.44;99258.50;5014085;28;854;-63
2021/10/16 02:39:55;;;;;;;;;;;;;;;13.72;92.96;99250.59;5014215;28;897;-63
2021/10/16 02:42:22;;;;;;;;;;;;;;;13.66;93.35;99250.31;5014108;28;854;-63
2021/10/16 02:44:49;;;;;;;;;;;;;;;13.63;93.74;99255.97;5014153;28;870;-63
2021/10/16 02:47:16;;;;;;;;;;;;;;;13.62;94.08;99271.84;5014035;28;826;-63
2021/10/16 02:49:43;;;;;;;;;;;;;;;13.60;93.91;99274.28;5013640;28;851;-63
2021/10/16 02:52:10;;;;;;;;;;;;;;;13.57;94.58;99268.81;5013643;28;1977;-62
2021/10/16 02:54:37;;;;;;;;;;;;;;;13.56;94.83;99276.38;5014022;28;787;-62
2021/10/16 02:57:04;;;;;;;;;;;;;;;13.56;94.75;99279.13;4995996;28;1328;-62
2021/10/16 02:59:30;;;;;;;;;;;;;;;13.59;95.00;99280.25;5013553;28;847;-62
2021/10/16 03:01:57;;;;;;;;;;;;;;;13.63;95.04;99278.19;5012996;28;1341;-63
2021/10/16 03:04:23;;;;;;;;;;;;;;;13.67;94.88;99270.53;5013239;28;878;-62
2021/10/16 03:06:50;;;;;;;;;;;;;;;13.71;95.03;99262.88;5013051;28;863;-62
2021/10/16 03:09:17;;;;;;;;;;;;;;;13.74;94.95;99248.16;5013112;28;815;-62
2021/10/16 03:11:44;;;;;;;;;;;;;;;13.76;94.71;99244.91;5012972;28;835;-62
2021/10/16 03:14:10;;;;;;;;;;;;;;;13.73;94.83;99238.25;5012998;28;1914;-62
2021/10/16 03:16:37;;;;;;;;;;;;;;;13.71;95.05;99229.56;5012991;28;1023;-62
2021/10/16 03:19:04;;;;;;;;;;;;;;;13.76;95.03;99244.91;5012949;28;799;-62
2021/10/16 03:21:31;;;;;;;;;;;;;;;13.81;94.93;99241.63;5012837;28;866;-62
2021/10/16 03:23:57;;;;;;;;;;;;;;;13.83;94.77;99237.19;5012800;28;835;-62
2021/10/16 03:26:24;;;;;;;;;;;;;;;13.85;94.63;99239.53;5012758;28;807;-62
2021/10/16 03:28:50;;;;;;;;;;;;;;;13.83;94.55;99234.41;5012652;28;982;-62
2021/10/16 03:31:17;;;;;;;;;;;;;;;13.82;94.52;99235.59;5012759;28;815;-62
2021/10/16 03:33:42;;;;;;;;;;;;;;;13.83;94.30;99233.63;5012638;28;1887;-61
2021/10/16 03:36:09;;;;;;;;;;;;;;;13.85;94.14;99225.63;4994986;28;1271;-61
2021/10/16 03:38:35;;;;;;;;;;;;;;;13.86;93.98;99238.28;5012631;28;843;-62
2021/10/16 03:41:03;;;;;;;;;;;;;;;13.79;93.81;99236.50;4994439;28;1174;-61
2021/10/16 03:43:29;;;;;;;;;;;;;;;13.74;94.15;99239.00;5012540;28;901;-62
2021/10/16 03:45:55;;;;;;;;;;;;;;;13.73;94.05;99240.25;5012429;28;886;-61
2021/10/16 03:48:22;;;;;;;;;;;;;;;13.69;94.12;99252.22;5012471;28;818;-62
2021/10/16 03:50:49;;;;;;;;;;;;;;;13.64;94.30;99249.97;5012317;28;803;-62
2021/10/16 03:53:16;;;;;;;;;;;;;;;13.60;94.42;99242.97;5012320;28;1890;-62
2021/10/16 03:55:42;;;;;;;;;;;;;;;13.58;94.54;99245.41;5012213;28;842;-62
2021/10/16 03:58:09;;;;;;;;;;;;;;;13.61;94.56;99256.41;5012364;28;870;-62
2021/10/16 04:00:36;;;;;;;;;;;;;;;13.64;94.65;99261.09;5012105;28;1211;-62
2021/10/16 04:03:04;;;;;;;;;;;;;;;13.66;94.54;99257.88;5012193;28;862;-62
2021/10/16 04:05:32;;;;;;;;;;;;;;;13.69;94.58;99252.22;5012175;28;874;-62
2021/10/16 04:07:59;;;;;;;;;;;;;;;13.69;94.54;99245.88;5012127;28;827;-62
2021/10/16 04:10:25;;;;;;;;;;;;;;;13.69;94.69;99257.78;5012117;28;823;-62
2021/10/16 04:12:52;;;;;;;;;;;;;;;13.72;94.84;99250.59;5011902;28;1992;-62
2021/10/16 04:15:18;;;;;;;;;;;;;;;13.74;94.76;99247.34;5012056;28;791;-62
2021/10/16 04:17:45;;;;;;;;;;;;;;;13.76;94.65;99231.81;5012265;28;933;-62
2021/10/16 04:20:13;;;;;;;;;;;;;;;13.80;94.67;99235.25;5012013;28;835;-62
2021/10/16 04:22:39;;;;;;;;;;;;;;;13.85;94.30;99233.97;5011899;28;878;-62
2021/10/16 04:25:06;;;;;;;;;;;;;;;13.88;94.45;99236.63;5011798;28;894;-62
2021/10/16 04:27:33;;;;;;;;;;;;;;;13.89;94.39;99240.22;5011836;28;823;-62
2021/10/16 04:30:00;;;;;;;;;;;;;;;13.91;94.38;99236.97;5012049;28;913;-62
2021/10/16 04:32:26;;;;;;;;;;;;;;;13.96;94.36;99234.44;5011744;28;1909;-62
2021/10/16 04:34:53;;;;;;;;;;;;;;;14.04;94.36;99235.03;5011755;28;878;-62
2021/10/16 04:37:20;;;;;;;;;;;;;;;14.10;94.23;99238.81;4994125;28;1488;-62
2021/10/16 04:39:46;;;;;;;;;;;;;;;14.15;94.04;99245.84;5011725;28;862;-62
2021/10/16 04:42:12;;;;;;;;;;;;;;;14.22;93.66;99242.84;5011734;28;966;-62
2021/10/16 04:44:39;;;;;;;;;;;;;;;14.25;93.16;99237.22;5011644;28;862;-62
2021/10/16 04:47:07;;;;;;;;;;;;;;;14.33;93.18;99240.53;5011661;28;862;-62
2021/10/16 04:49:36;;;;;;;;;;;;;;;14.42;93.15;99242.66;5011755;28;830;-62
2021/10/16 04:52:04;;;;;;;;;;;;;;;14.48;92.84;99246.47;5013606;28;1890;-62
2021/10/16 04:54:31;;;;;;;;;;;;;;;14.54;92.53;99252.25;5015584;28;847;-63
2021/10/16 04:56:56;;;;;;;;;;;;;;;14.56;92.21;99249.84;5015832;28;803;-62
2021/10/16 04:59:24;;;;;;;;;;;;;;;14.56;91.79;99264.53;5015789;28;865;-62
2021/10/16 05:01:52;;;;;;;;;;;;;;;14.60;92.01;99261.66;5015398;28;1564;-62
2021/10/16 05:04:18;;;;;;;;;;;;;;;14.62;91.91;99261.97;5015457;28;901;-62
2021/10/16 05:06:45;;;;;;;;;;;;;;;14.64;91.82;99273.44;5015377;28;886;-62
2021/10/16 05:09:12;;;;;;;;;;;;;;;14.66;92.05;99279.34;5015659;28;831;-63
2021/10/16 05:19:58;;;;;;;;;;;;;;;14.42;92.58;99271.28;4995746;28;707;-60
2021/10/16 05:22:23;;;;;;;;;;;;;;;14.43;92.44;99275.59;4995563;28;925;-60
2021/10/16 05:24:50;;;;;;;;;;;;;;;14.46;92.46;99271.91;4995449;28;858;-60
2021/10/16 05:27:16;;;;;;;;;;;;;;;14.49;92.70;99276.63;4995507;28;854;-60
2021/10/16 05:29:43;;;;;;;;;;;;;;;14.54;92.38;99285.63;4995452;28;815;-60
2021/10/16 05:32:09;;;;;;;;;;;;;;;14.58;92.52;99269.66;4995330;28;2003;-60
2021/10/16 05:34:35;;;;;;;;;;;;;;;14.63;92.58;99261.53;4995623;28;858;-60
2021/10/16 05:37:03;;;;;;;;;;;;;;;14.69;92.22;99248.63;4995345;28;792;-60
2021/10/16 05:39:30;;;;;;;;;;;;;;;14.78;92.04;99256.31;4994973;28;879;-60
2021/10/16 05:41:56;;;;;;;;;;;;;;;14.90;92.08;99263.09;4995096;28;811;-60
2021/10/16 05:44:24;;;;;;;;;;;;;;;15.00;91.70;99253.66;4995190;28;827;-60
2021/10/16 05:46:50;;;;;;;;;;;;;;;15.05;91.20;99246.75;4994884;28;900;-60
2021/10/16 05:49:16;;;;;;;;;;;;;;;15.03;90.15;99257.53;4995072;28;827;-60
2021/10/16 05:51:43;;;;;;;;;;;;;;;15.10;90.61;99257.31;4995070;28;827;-60
2021/10/16 05:54:10;;;;;;;;;;;;;;;15.20;90.72;99266.56;4994841;28;1890;-60
2021/10/16 05:56:36;;;;;;;;;;;;;;;15.29;90.49;99278.53;4994985;28;874;-60
2021/10/16 05:59:03;;;;;;;;;;;;;;;15.43;90.32;99285.66;4995022;28;880;-60
2021/10/16 06:01:29;;;;;;;;;;;;;;;15.49;90.04;99294.22;4993607;28;883;-60
2021/10/16 06:03:55;;;;;;;;;;;;;;;15.45;89.50;99302.72;4994213;28;870;-60
2021/10/16 06:06:21;;;;;;;;;;;;;;;15.38;89.78;99307.72;4994663;28;907;-60
2021/10/16 06:08:48;;;;;;;;;;;;;;;15.38;89.88;99310.50;4994694;28;807;-60
2021/10/16 06:11:15;;;;;;;;;;;;;;;15.35;89.86;99303.06;4994693;28;815;-60
2021/10/16 06:13:42;;;;;;;;;;;;;;;15.44;89.93;99305.94;4994650;28;1886;-60
2021/10/16 06:16:08;;;;;;;;;;;;;;;15.49;90.10;99311.72;4994458;28;869;-60
2021/10/16 06:18:35;;;;;;;;;;;;;;;15.52;89.93;99319.16;5005609;28;1294;-60
2021/10/16 06:21:03;;;;;;;;;;;;;;;15.63;90.13;99313.25;5014073;28;919;-60
2021/10/16 06:23:30;;;;;;;;;;;;;;;15.83;89.94;99321.38;5014027;28;857;-60
2021/10/16 06:25:56;;;;;;;;;;;;;;;16.00;89.61;99327.56;5014323;28;854;-60
2021/10/16 06:28:22;;;;;;;;;;;;;;;16.17;89.16;99330.94;5013960;28;1019;-60
2021/10/16 06:30:49;;;;;;;;;;;;;;;16.23;88.65;99322.78;5013822;28;935;-60
2021/10/16 06:33:16;;;;;;;;;;;;;;;16.21;88.72;99333.63;5013829;28;1906;-60
2021/10/16 06:35:43;;;;;;;;;;;;;;;16.21;88.94;99334.38;5013866;28;811;-60
2021/10/16 06:38:10;;;;;;;;;;;;;;;16.28;89.08;99333.34;5013742;28;869;-60
2021/10/16 06:40:36;;;;;;;;;;;;;;;16.42;88.97;99332.06;5013830;28;834;-60
2021/10/16 06:43:02;;;;;;;;;;;;;;;16.58;88.68;99333.88;5013762;28;909;-60
2021/10/16 06:45:28;;;;;;;;;;;;;;;16.69;88.35;99339.84;5013502;28;883;-60
2021/10/16 06:47:55;;;;;;;;;;;;;;;16.81;88.00;99339.00;5013623;28;905;-60
2021/10/16 06:50:21;;;;;;;;;;;;;;;16.86;87.57;99338.44;5013573;28;830;-61
2021/10/16 06:52:48;;;;;;;;;;;;;;;16.89;87.26;99339.53;5013710;28;1945;-61
2021/10/16 06:55:15;;;;;;;;;;;;;;;16.88;86.68;99341.53;5013499;28;827;-61
2021/10/16 06:57:42;;;;;;;;;;;;;;;16.97;87.08;99342.84;5013576;28;897;-61
2021/10/16 07:00:08;;;;;;;;;;;;;;;17.08;86.45;99338.38;5013494;28;897;-61
2021/10/16 07:02:35;;;;;;;;;;;;;;;17.33;85.30;99336.63;5013426;28;815;-61
2021/10/16 07:05:02;;;;;;;;;;;;;;;17.65;83.28;99338.09;5013699;28;807;-61
2021/10/16 07:07:29;;;;;;;;;;;;;;;18.16;82.71;99331.97;5013591;28;958;-61
2021/10/16 07:09:55;;;;;;;;;;;;;;;18.61;82.05;99328.84;5013394;28;874;-61
2021/10/16 07:12:23;;;;;;;;;;;;;;;18.82;81.35;99330.69;5013210;28;1890;-62
2021/10/16 07:14:50;;;;;;;;;;;;;;;18.64;80.32;99323.06;4994677;28;1236;-61
2021/10/16 07:17:18;;;;;;;;;;;;;;;18.45;80.77;99330.72;5012906;28;1145;-61
2021/10/16 07:19:44;;;;;;;;;;;;;;;18.44;81.51;99325.59;5013072;28;873;-61
2021/10/16 07:22:11;;;;;;;;;;;;;;;18.96;81.07;99321.59;5013058;28;862;-61
2021/10/16 07:24:38;;;;;;;;;;;;;;;19.51;79.00;99320.59;5013114;28;870;-61
2021/10/16 07:27:03;;;;;;;;;;;;;;;19.92;78.05;99325.81;5013110;28;811;-61
2021/10/16 07:29:30;;;;;;;;;;;;;;;20.16;74.96;99320.16;5013113;28;901;-61
2021/10/16 07:31:57;;;;;;;;;;;;;;;20.47;75.15;99322.53;5013241;28;834;-62
2021/10/16 07:34:23;;;;;;;;;;;;;;;21.86;69.18;99321.66;5012637;28;1906;-62
2021/10/16 07:36:50;;;;;;;;;;;;;;;23.15;67.66;99313.00;5012732;28;900;-62
2021/10/16 07:39:17;;;;;;;;;;;;;;;23.41;67.98;99307.31;5012665;28;815;-63
2021/10/16 07:41:47;;;;;;;;;;;;;;;23.02;70.04;99313.44;5012690;28;877;-62
2021/10/16 07:44:14;;;;;;;;;;;;;;;23.70;68.96;99311.03;5012653;28;957;-62
2021/10/16 07:46:41;;;;;;;;;;;;;;;23.34;67.61;99308.56;5012521;28;965;-62
2021/10/16 07:49:08;;;;;;;;;;;;;;;22.80;67.33;99311.94;5012585;28;1052;-62
2021/10/16 07:51:35;;;;;;;;;;;;;;;22.34;67.75;99321.25;5012625;28;874;-61
2021/10/16 07:54:02;;;;;;;;;;;;;;;21.63;70.59;99322.66;5012556;28;1941;-62
2021/10/16 07:56:28;;;;;;;;;;;;;;;21.20;71.30;99320.97;5012655;28;905;-62
2021/10/16 07:58:55;;;;;;;;;;;;;;;21.04;72.84;99324.31;5012620;28;847;-62
2021/10/16 08:01:21;;;;;;;;;;;;;;;21.13;73.26;99318.59;5012489;28;874;-62
2021/10/16 08:03:47;;;;;;;;;;;;;;;20.98;71.76;99321.41;5012714;28;858;-61
2021/10/16 08:06:14;;;;;;;;;;;;;;;20.77;74.16;99308.56;5012143;28;870;-61
2021/10/16 08:08:40;;;;;;;;;;;;;;;20.30;74.68;99315.84;5012221;28;827;-61
2021/10/16 08:11:07;;;;;;;;;;;;;;;20.07;76.07;99321.00;5012182;28;807;-61
2021/10/16 08:13:33;;;;;;;;;;;;;;;19.95;75.83;99328.44;5012001;28;1886;-61
2021/10/16 08:16:00;;;;;;;;;;;;;;;19.95;75.67;99328.44;5011869;28;1072;-61
2021/10/16 08:18:26;;;;;;;;;;;;;;;19.96;74.43;99329.97;5011846;28;1397;-61
2021/10/16 08:20:53;;;;;;;;;;;;;;;19.82;74.31;99327.13;5011974;28;807;-61
2021/10/16 08:23:20;;;;;;;;;;;;;;;19.50;75.69;99329.47;5012231;28;854;-61
2021/10/16 08:25:46;;;;;;;;;;;;;;;19.26;76.33;99329.44;5011646;28;947;-61
2021/10/16 08:28:14;;;;;;;;;;;;;;;19.09;76.98;99331.84;5011881;28;882;-60
2021/10/16 08:30:45;;;;;;;;;;;;;;;18.91;76.25;99336.25;4994399;28;918;-60
2021/10/16 08:33:12;;;;;;;;;;;;;;;18.74;77.49;99341.41;5011867;28;1902;-60
2021/10/16 08:35:39;;;;;;;;;;;;;;;18.82;78.71;99333.50;5012202;28;865;-60
2021/10/16 08:38:05;;;;;;;;;;;;;;;18.94;78.90;99331.72;5012165;28;829;-60
2021/10/16 08:40:32;;;;;;;;;;;;;;;19.08;78.38;99335.91;5011731;28;842;-60
2021/10/16 08:42:59;;;;;;;;;;;;;;;19.05;77.72;99342.44;5012288;28;927;-60
2021/10/16 08:45:26;;;;;;;;;;;;;;;18.85;77.37;99332.53;5011921;28;815;-60
2021/10/16 08:47:53;;;;;;;;;;;;;;;18.83;78.40;99339.84;5011900;28;803;-60
2021/10/16 08:50:19;;;;;;;;;;;;;;;18.92;78.25;99343.41;5011937;28;814;-60
2021/10/16 08:52:46;;;;;;;;;;;;;;;19.07;78.13;99340.72;5011866;28;1951;-60
2021/10/16 08:55:13;;;;;;;;;;;;;;;19.24;77.98;99337.53;5011670;28;791;-60
2021/10/16 08:57:41;;;;;;;;;;;;;;;19.13;77.54;99340.84;5011555;28;854;-61
2021/10/16 09:00:25;;;;;;;;;;;;;;;18.94;78.45;99340.91;4994059;28;882;-60
2021/10/16 09:02:52;;;;;;;;;;;;;;;18.76;78.00;99346.53;5011648;28;876;-60
2021/10/16 09:05:19;;;;;;;;;;;;;;;18.52;78.01;99327.59;5011684;28;946;-60
2021/10/16 09:07:46;;;;;;;;;;;;;;;18.77;77.20;99339.69;5011851;28;830;-61
2021/10/16 09:10:22;;;;;;;;;;;;;;;19.47;76.23;99339.59;5011722;28;917;-61
2021/10/16 09:12:51;;;;;;;;;;;;;;;20.84;70.76;99335.47;5011337;28;1917;-61
2021/10/16 09:15:21;;;;;;;;;;;;;;;21.62;69.73;99338.75;5011534;28;865;-61
2021/10/16 09:18:04;;;;;;;;;;;;;;;21.87;70.59;99331.66;5011533;28;1424;-62
2021/10/16 09:20:34;;;;;;;;;;;;;;;22.38;70.14;99343.53;4993821;28;1192;-62
2021/10/16 09:23:07;;;;;;;;;;;;;;;22.86;69.90;99331.72;5011506;28;835;-62
2021/10/16 09:25:33;;;;;;;;;;;;;;;22.73;67.12;99337.00;5011276;28;882;-62
2021/10/16 09:28:13;;;;;;;;;;;;;;;22.02;69.73;99338.00;5011319;28;791;-61
2021/10/16 09:30:49;;;;;;;;;;;;;;;21.25;70.81;99339.22;5011496;28;866;-61
2021/10/16 09:33:16;;;;;;;;;;;;;;;20.94;72.50;99334.09;5011253;28;1910;-61
2021/10/16 09:35:43;;;;;;;;;;;;;;;20.77;73.03;99343.00;5011188;28;919;-61
2021/10/16 09:38:10;;;;;;;;;;;;;;;20.59;72.37;99338.38;5011853;28;859;-61
2021/10/16 09:40:42;;;;;;;;;;;;;;;20.23;72.48;99344.25;5014788;28;982;-61
2021/10/16 09:43:27;;;;;;;;;;;;;;;19.85;71.96;99345.81;5014794;28;853;-60
2021/10/16 09:46:12;;;;;;;;;;;;;;;19.72;72.92;99341.22;5014702;28;855;-61
2021/10/16 09:48:39;;;;;;;;;;;;;;;19.51;70.95;99345.81;5014758;28;806;-59
2021/10/16 09:51:06;;;;;;;;;;;;;;;19.04;70.87;99347.25;5014602;28;934;-59
2021/10/16 09:53:33;;;;;;;;;;;;;;;18.65;71.57;99352.63;5014616;28;1890;-59
2021/10/16 09:56:01;;;;;;;;;;;;;;;18.45;73.48;99352.31;5014483;28;934;-60
2021/10/16 09:58:29;;;;;;;;;;;;;;;18.39;74.53;99352.16;5014572;28;810;-59
2021/10/16 10:00:55;;;;;;;;;;;;;;;18.45;74.79;99347.50;5014589;28;806;-59
2021/10/16 10:03:24;;;;;;;;;;;;;;;18.51;74.64;99351.22;5014670;28;910;-60
2021/10/16 10:05:54;;;;;;;;;;;;;;;18.64;74.70;99359.44;5014309;28;901;-60
2021/10/16 10:08:21;;;;;;;;;;;;;;;18.81;75.06;99362.72;5014327;28;965;-60
2021/10/16 10:10:50;;;;;;;;;;;;;;;18.93;75.57;99364.56;5014251;28;833;-60
2021/10/16 10:13:16;;;;;;;;;;;;;;;19.07;75.84;99362.34;5014073;28;1955;-60
2021/10/16 10:15:43;;;;;;;;;;;;;;;18.86;76.30;99367.69;5014184;28;874;-60
2021/10/16 10:21:00;;;;;;;;;;;;;;;17.52;80.76;99382.16;5014445;28;630;-60
2021/10/16 10:23:27;;;;;;;;;;;;;;;17.05;81.77;99366.44;5015190;28;979;-60
2021/10/16 10:26:12;;;;;;;;;;;;;;;16.57;83.80;99366.56;5014225;28;859;-60
2021/10/16 10:28:55;;;;;;;;;;;;;;;16.28;85.76;99361.22;5013943;28;943;-60
2021/10/16 10:31:40;;;;;;;;;;;;;;;16.22;87.24;99363.06;5013884;28;916;-60
2021/10/16 10:34:05;;;;;;;;;;;;;;;16.13;88.54;99356.19;5013802;28;1963;-61
2021/10/16 10:36:43;;;;;;;;;;;;;;;16.18;89.47;99362.41;5013869;28;843;-61
2021/10/16 10:39:28;;;;;;;;;;;;;;;15.99;88.91;99361.47;5013702;28;942;-60
2021/10/16 10:41:54;;;;;;;;;;;;;;;15.82;89.80;99358.81;5013702;28;819;-60
2021/10/16 10:44:38;;;;;;;;;;;;;;;15.78;90.18;99360.94;5013689;28;841;-60
2021/10/16 10:47:20;;;;;;;;;;;;;;;15.65;89.46;99357.38;5013503;28;959;-59
2021/10/16 10:49:47;;;;;;;;;;;;;;;15.45;89.07;99357.63;5013402;28;807;-59
2021/10/16 10:52:14;;;;;;;;;;;;;;;15.35;89.36;99350.41;5013371;28;1894;-59
2021/10/16 10:55:10;;;;;;;;;;;;;;;15.24;89.50;99353.50;5013431;28;894;-59
2021/10/16 10:57:48;;;;;;;;;;;;;;;15.13;90.16;99348.28;5013368;28;1139;-59
2021/10/16 11:00:39;;;;;;;;;;;;;;;15.10;90.32;99341.56;5013282;28;871;-59
2021/10/16 11:03:24;;;;;;;;;;;;;;;15.08;90.23;99340.47;5005731;28;1669;-59
2021/10/16 11:05:51;;;;;;;;;;;;;;;15.02;90.41;99331.91;5013126;28;950;-59
2021/10/16 11:08:17;;;;;;;;;;;;;;;15.10;90.65;99336.00;5013364;28;788;-59
2021/10/16 11:10:44;;;;;;;;;;;;;;;15.17;90.66;99331.44;5013257;28;949;-59
2021/10/16 11:13:12;;;;;;;;;;;;;;;15.27;90.10;99339.47;5013233;28;1957;-59
2021/10/16 11:15:42;;;;;;;;;;;;;;;15.36;89.02;99336.00;5013021;28;962;-59
2021/10/16 11:21:41;;;;;;;;;;;;;;;15.50;87.67;99337.56;5013323;28;780;-58
2021/10/16 11:24:08;;;;;;;;;;;;;;;15.49;87.23;99341.56;5012980;28;893;-58
2021/10/16 11:26:34;;;;;;;;;;;;;;;15.40;87.21;99333.13;5013218;28;830;-58
2021/10/16 11:29:00;;;;;;;;;;;;;;;15.29;87.19;99339.03;5012927;28;823;-59
2021/10/16 11:31:27;;;;;;;;;;;;;;;15.10;86.30;99338.78;5012808;28;1063;-58
2021/10/16 11:36:56;;;;;;;;;;;;;;;14.52;87.04;99347.25;5012778;28;633;-58
2021/10/16 11:51:35;;;;;;;;;;;;;;;13.64;90.31;99355.50;5012782;28;625;-59
2021/10/16 11:54:15;;;;;;;;;;;;;;;13.50;91.31;99368.94;5012260;28;1894;-64
2021/10/16 11:56:42;;;;;;;;;;;;;;;13.42;92.05;99365.53;5012478;28;881;-67
2021/10/16 11:59:09;;;;;;;;;;;;;;;13.39;92.37;99374.75;5012373;28;925;-74
2021/10/16 12:01:45;;;;;;;;;;;;;;;13.44;92.67;99374.22;4994373;28;1177;-75
2021/10/16 12:04:12;;;;;;;;;;;;;;;13.52;93.00;99369.28;5012175;28;819;-71
2021/10/16 12:06:40;;;;;;;;;;;;;;;13.58;93.21;99370.34;5012189;28;898;-72
2021/10/16 12:09:11;;;;;;;;;;;;;;;13.56;93.05;99365.22;5012191;28;850;-73
2021/10/16 12:11:39;;;;;;;;;;;;;;;13.52;93.18;99361.75;5011919;28;938;-76
2021/10/16 12:14:12;;;;;;;;;;;;;;;13.48;93.42;99369.38;5012067;28;1937;-68
2021/10/16 12:16:46;;;;;;;;;;;;;;;13.45;93.59;99370.25;5012219;28;901;-63
2021/10/16 12:19:16;;;;;;;;;;;;;;;13.38;93.72;99370.44;5011878;28;1346;-63
2021/10/16 12:21:43;;;;;;;;;;;;;;;13.36;93.86;99372.84;5012075;28;823;-64
2021/10/16 12:24:11;;;;;;;;;;;;;;;13.31;93.99;99376.91;5011921;28;839;-64
2021/10/16 12:26:58;;;;;;;;;;;;;;;13.24;93.98;99375.03;5012229;28;794;-75
2021/10/16 12:29:34;;;;;;;;;;;;;;;13.10;94.22;99382.91;5012164;28;933;-71
2021/10/16 12:32:21;;;;;;;;;;;;;;;13.04;94.45;99390.97;5011947;28;858;-75
2021/10/16 12:34:51;;;;;;;;;;;;;;;12.91;94.24;99387.25;4993124;28;1088;-73
2021/10/16 12:37:18;;;;;;;;;;;;;;;12.78;94.54;99385.16;5011776;28;878;-69
2021/10/16 12:39:46;;;;;;;;;;;;;;;12.73;94.80;99388.41;5011786;28;898;-70
2021/10/16 12:42:14;;;;;;;;;;;;;;;12.73;94.98;99396.72;5011753;28;886;-69
2021/10/16 12:44:42;;;;;;;;;;;;;;;12.69;94.55;99386.94;4994166;28;1698;-72
2021/10/16 12:47:10;;;;;;;;;;;;;;;12.70;94.70;99392.06;5011810;28;853;-70
2021/10/16 12:49:40;;;;;;;;;;;;;;;12.61;94.48;99387.09;5011834;28;869;-70
2021/10/16 12:52:25;;;;;;;;;;;;;;;12.59;94.53;99388.72;5011691;28;863;-69
2021/10/16 12:54:53;;;;;;;;;;;;;;;12.60;94.75;99393.03;5011702;28;822;-71
2021/10/16 12:57:21;;;;;;;;;;;;;;;12.52;94.41;99386.84;5011635;28;960;-72
2021/10/16 12:59:47;;;;;;;;;;;;;;;12.35;93.31;99396.28;5011624;28;798;-70
2021/10/16 13:02:14;;;;;;;;;;;;;;;12.21;93.52;99389.03;5011600;28;1054;-72
2021/10/16 13:04:44;;;;;;;;;;;;;;;12.08;93.69;99391.63;5011544;28;961;-71
2021/10/16 13:07:10;;;;;;;;;;;;;;;12.03;93.99;99390.13;5011687;28;823;-70
2021/10/16 13:09:37;;;;;;;;;;;;;;;12.05;94.25;99393.28;5011441;28;807;-69
2021/10/16 13:12:04;;;;;;;;;;;;;;;12.05;94.45;99390.50;5011492;28;909;-69
2021/10/16 13:14:31;;;;;;;;;;;;;;;12.07;94.27;99378.97;5014212;28;1906;-69
2021/10/16 13:16:57;;;;;;;;;;;;;;;12.13;94.63;99384.81;5015580;28;936;-68
2021/10/16 13:19:24;;;;;;;;;;;;;;;12.21;94.74;99375.19;5015092;28;1279;-68
2021/10/16 13:21:51;;;;;;;;;;;;;;;12.17;93.59;99377.22;5015221;28;850;-70
2021/10/16 13:24:17;;;;;;;;;;;;;;;12.09;92.96;99389.63;4997574;28;1349;-69
2021/10/16 13:26:44;;;;;;;;;;;;;;;12.08;93.00;99380.56;4997508;28;1315;-67
2021/10/16 13:29:10;;;;;;;;;;;;;;;12.08;92.75;99388.06;4997551;28;835;-68
2021/10/16 13:31:36;;;;;;;;;;;;;;;12.03;93.47;99379.06;5015070;28;886;-67
2021/10/16 13:34:03;;;;;;;;;;;;;;;12.00;93.12;99382.66;5015005;28;1972;-66
2021/10/16 13:36:30;;;;;;;;;;;;;;;11.95;92.99;99388.69;5014958;28;889;-66
2021/10/16 13:38:58;;;;;;;;;;;;;;;11.91;93.58;99401.81;5014903;28;827;-64